Time;durP1;ratioP1;P1;durP2;ratioP2;P2;SDS_P1;SDS_P2;PMS_P1;PMS_P2;Temp;Humidity;BMP_temperature;BMP_pressure;BME280_temperature;BME280_humidity;BME280_pressure;Samples;Min_cycle;Max_cycle;Signal;HPM_P1;HPM_P2
2022/05/15 00:02:12;;;;;;;16.88;5.80;;;12.60;99.90;;;;;;5025651;28;20101;-54
2022/05/15 00:04:38;;;;;;;16.40;6.55;;;12.60;99.90;;;;;;5024808;28;20532;-57
2022/05/15 00:07:07;;;;;;;18.70;7.18;;;12.50;99.90;;;;;;5023507;28;20038;-54
2022/05/15 00:09:33;;;;;;;10.68;6.25;;;12.40;99.90;;;;;;5026260;28;20037;-58
2022/05/15 00:11:58;;;;;;;18.65;7.15;;;12.40;99.90;;;;;;5039735;28;20072;-59
2022/05/15 00:14:24;;;;;;;17.50;6.80;;;12.30;99.90;;;;;;5024051;28;20036;-58
2022/05/15 00:16:49;;;;;;;21.70;7.32;;;12.30;99.90;;;;;;5006006;28;20069;-58
2022/05/15 00:19:15;;;;;;;16.85;6.53;;;12.30;99.90;;;;;;5022515;28;20052;-58
2022/05/15 00:21:40;;;;;;;15.50;6.00;;;12.20;99.90;;;;;;5030697;28;20156;-56
2022/05/15 00:24:06;;;;;;;17.23;8.30;;;12.20;99.90;;;;;;5025964;28;20107;-57
2022/05/15 00:26:33;;;;;;;19.17;7.03;;;12.30;99.90;;;;;;5029100;28;20056;-58
2022/05/15 00:28:59;;;;;;;13.23;6.60;;;12.30;99.90;;;;;;5019869;28;20694;-58
2022/05/15 00:31:25;;;;;;;15.38;7.30;;;12.20;99.90;;;;;;5017070;28;20026;-58
2022/05/15 00:33:51;;;;;;;16.33;7.13;;;12.10;99.90;;;;;;5028182;28;20103;-61
2022/05/15 00:36:17;;;;;;;16.60;7.20;;;12.10;99.90;;;;;;5019149;28;20033;-60
2022/05/15 00:38:43;;;;;;;17.73;6.95;;;12.00;99.90;;;;;;5019672;28;20029;-57
2022/05/15 00:41:10;;;;;;;19.55;6.82;;;12.00;99.90;;;;;;5030168;28;20499;-58
2022/05/15 00:43:56;;;;;;;20.50;6.72;;;12.00;99.90;;;;;;5028197;28;20025;-60
2022/05/15 00:46:31;;;;;;;14.90;6.20;;;11.90;99.90;;;;;;5029958;28;20422;-57
2022/05/15 00:48:59;;;;;;;11.27;6.18;;;11.90;99.90;;;;;;5028744;28;20025;-59
2022/05/15 00:51:45;;;;;;;18.08;6.32;;;11.90;99.90;;;;;;5030077;28;20025;-58
2022/05/15 00:54:19;;;;;;;13.65;6.38;;;11.80;99.90;;;;;;5022452;28;20025;-58
2022/05/15 00:57:10;;;;;;;27.08;6.90;;;11.80;99.90;;;;;;5024761;28;20053;-54
2022/05/15 00:59:42;;;;;;;15.30;7.15;;;11.70;99.90;;;;;;5029697;28;20041;-61
2022/05/15 01:02:10;;;;;;;15.95;6.68;;;11.60;99.90;;;;;;5030476;28;20384;-59
2022/05/15 01:04:36;;;;;;;17.70;6.80;;;11.60;99.90;;;;;;5017136;28;20590;-57
2022/05/15 01:07:03;;;;;;;12.15;5.70;;;11.50;99.90;;;;;;5020370;28;20036;-58
2022/05/15 01:09:29;;;;;;;15.65;5.75;;;11.50;99.90;;;;;;5024569;28;20526;-59
2022/05/15 01:11:55;;;;;;;13.32;6.57;;;11.50;99.90;;;;;;5025903;28;20037;-58
2022/05/15 01:14:21;;;;;;;15.52;5.95;;;11.60;99.90;;;;;;5024719;28;20372;-59
2022/05/15 01:16:47;;;;;;;15.15;6.97;;;11.50;99.90;;;;;;5010127;28;20514;-59
2022/05/15 01:19:14;;;;;;;14.57;7.38;;;11.50;99.90;;;;;;5018965;28;20076;-55
2022/05/15 01:21:55;;;;;;;15.70;6.40;;;11.50;99.90;;;;;;5024000;28;20027;-60
2022/05/15 01:24:21;;;;;;;22.15;7.75;;;11.50;99.90;;;;;;5023192;28;20638;-59
2022/05/15 01:26:46;;;;;;;17.98;6.38;;;11.40;99.90;;;;;;5027032;28;20109;-56
2022/05/15 01:29:12;;;;;;;12.63;7.03;;;11.40;99.90;;;;;;5026478;28;20099;-58
2022/05/15 01:31:38;;;;;;;13.85;7.70;;;11.40;99.90;;;;;;5031127;28;20040;-57
2022/05/15 01:34:08;;;;;;;16.25;7.78;;;11.30;99.90;;;;;;5027360;28;20026;-58
2022/05/15 01:36:34;;;;;;;15.55;8.23;;;11.30;99.90;;;;;;5028482;28;20552;-59
2022/05/15 01:39:00;;;;;;;16.05;7.70;;;11.30;99.90;;;;;;5023872;28;20581;-59
2022/05/15 01:41:25;;;;;;;13.63;7.70;;;11.20;99.90;;;;;;5026136;28;20060;-59
2022/05/15 01:43:53;;;;;;;13.43;6.97;;;11.10;99.90;;;;;;5026445;28;20024;-60
2022/05/15 01:46:21;;;;;;;17.50;7.38;;;11.10;99.90;;;;;;5030997;28;20033;-58
2022/05/15 01:48:48;;;;;;;18.55;7.95;;;11.10;99.90;;;;;;5025022;28;20084;-58
2022/05/15 01:51:14;;;;;;;13.15;8.40;;;11.10;99.90;;;;;;5029497;28;20025;-59
2022/05/15 01:53:40;;;;;;;13.20;7.55;;;11.00;99.90;;;;;;5025087;28;20391;-57
2022/05/15 01:56:06;;;;;;;16.67;7.18;;;11.10;99.90;;;;;;5029751;28;20034;-60
2022/05/15 01:58:32;;;;;;;17.42;7.60;;;11.00;99.90;;;;;;5024422;28;20553;-59
2022/05/15 02:00:57;;;;;;;18.40;7.72;;;10.90;99.90;;;;;;5030026;28;20557;-57
2022/05/15 02:03:23;;;;;;;18.90;7.40;;;10.90;99.90;;;;;;5020297;28;20109;-58
2022/05/15 02:05:48;;;;;;;15.68;8.18;;;10.90;99.90;;;;;;5017504;28;20475;-58
2022/05/15 02:08:14;;;;;;;18.85;8.98;;;10.90;99.90;;;;;;5027368;28;20061;-56
2022/05/15 02:10:39;;;;;;;29.80;8.75;;;10.90;99.90;;;;;;5027606;28;20139;-54
2022/05/15 02:13:05;;;;;;;16.50;7.60;;;10.90;99.90;;;;;;5018121;28;20036;-58
2022/05/15 02:15:31;;;;;;;13.32;7.82;;;10.90;99.90;;;;;;5027012;28;20048;-59
2022/05/15 02:17:56;;;;;;;17.45;8.63;;;10.90;99.90;;;;;;5006198;28;20575;-54
2022/05/15 02:20:23;;;;;;;21.08;8.43;;;10.90;99.90;;;;;;5026042;28;20034;-57
2022/05/15 02:22:48;;;;;;;11.18;7.25;;;10.80;99.90;;;;;;5026172;28;20041;-58
2022/05/15 02:25:14;;;;;;;20.67;8.43;;;10.70;99.90;;;;;;5025189;28;20061;-58
2022/05/15 02:27:40;;;;;;;16.67;9.52;;;10.70;99.90;;;;;;5023563;28;20112;-59
2022/05/15 02:30:08;;;;;;;14.73;7.47;;;10.70;99.90;;;;;;5026073;28;20044;-60
2022/05/15 02:32:33;;;;;;;11.48;8.30;;;10.70;99.90;;;;;;5026239;28;20153;-57
2022/05/15 02:34:59;;;;;;;21.15;8.10;;;10.70;99.90;;;;;;5022047;28;20116;-61
2022/05/15 02:37:24;;;;;;;16.75;7.65;;;10.70;99.90;;;;;;5025068;28;20564;-58
2022/05/15 02:39:50;;;;;;;14.15;7.90;;;10.70;99.90;;;;;;5023589;28;20031;-57
2022/05/15 02:42:15;;;;;;;15.63;7.60;;;10.70;99.90;;;;;;5029223;28;20021;-59
2022/05/15 02:44:41;;;;;;;19.85;7.65;;;10.70;99.90;;;;;;5025265;28;20037;-60
2022/05/15 02:47:06;;;;;;;14.30;8.02;;;10.70;99.90;;;;;;5015437;28;20035;-60
2022/05/15 02:52:16;;;;;;;19.15;7.18;;;10.60;99.90;;;;;;5026825;28;20137;-60
2022/05/15 02:54:43;;;;;;;22.23;8.20;;;10.50;99.90;;;;;;5021582;28;20105;-60
2022/05/15 02:57:10;;;;;;;14.70;8.40;;;10.50;99.90;;;;;;5020562;28;20558;-59
2022/05/15 02:59:37;;;;;;;17.10;7.97;;;10.50;99.90;;;;;;5014515;28;20033;-59
2022/05/15 03:02:03;;;;;;;14.27;7.40;;;10.50;99.90;;;;;;5029474;28;20053;-59
2022/05/15 03:04:30;;;;;;;12.27;7.72;;;10.50;99.90;;;;;;5023916;28;20402;-58
2022/05/15 03:06:56;;;;;;;14.38;7.57;;;10.50;99.90;;;;;;5032186;28;20101;-58
2022/05/15 03:09:21;;;;;;;13.45;8.32;;;10.50;99.90;;;;;;5016146;28;20030;-56
2022/05/15 03:11:47;;;;;;;11.77;7.85;;;10.50;99.90;;;;;;5023874;28;20052;-56
2022/05/15 03:14:13;;;;;;;13.48;8.70;;;10.50;99.90;;;;;;5020270;28;20517;-54
2022/05/15 03:16:38;;;;;;;16.70;8.25;;;10.40;99.90;;;;;;5014071;28;20041;-53
2022/05/15 03:19:04;;;;;;;16.15;8.05;;;10.40;99.90;;;;;;5024421;28;20025;-58
2022/05/15 03:21:29;;;;;;;20.17;7.60;;;10.40;99.90;;;;;;5019903;28;20053;-58
2022/05/15 03:24:10;;;;;;;18.13;9.15;;;10.40;99.90;;;;;;5022357;28;20030;-57
2022/05/15 03:26:39;;;;;;;19.33;7.05;;;10.40;99.90;;;;;;5037096;28;20022;-59
2022/05/15 03:29:05;;;;;;;16.63;7.85;;;10.30;99.90;;;;;;5022079;28;20029;-58
2022/05/15 03:31:35;;;;;;;15.23;7.22;;;10.30;99.90;;;;;;5029668;28;20038;-59
2022/05/15 03:34:01;;;;;;;14.20;8.32;;;10.40;99.90;;;;;;5018773;28;20435;-59
2022/05/15 03:36:27;;;;;;;15.70;7.38;;;10.30;99.90;;;;;;5019511;28;20387;-55
2022/05/15 03:38:53;;;;;;;13.00;7.25;;;10.30;99.90;;;;;;5022035;28;20025;-58
2022/05/15 03:41:18;;;;;;;13.90;7.40;;;10.30;99.90;;;;;;5028396;28;20160;-58
2022/05/15 03:43:44;;;;;;;18.95;9.10;;;10.40;99.90;;;;;;5026226;28;20044;-57
2022/05/15 03:46:09;;;;;;;15.77;6.82;;;10.40;99.90;;;;;;5025663;28;20036;-54
2022/05/15 03:48:35;;;;;;;19.63;7.03;;;10.40;99.90;;;;;;5020683;28;20053;-51
2022/05/15 03:51:01;;;;;;;15.82;7.57;;;10.40;99.90;;;;;;5038270;28;20034;-57
2022/05/15 03:53:27;;;;;;;15.13;6.70;;;10.50;99.90;;;;;;5024637;28;20026;-57
2022/05/15 03:55:58;;;;;;;45.03;10.55;;;10.50;99.90;;;;;;5022078;28;20067;-57
2022/05/15 03:58:25;;;;;;;15.82;7.00;;;10.50;99.90;;;;;;5029190;28;20041;-58
2022/05/15 04:00:51;;;;;;;12.30;7.22;;;10.50;99.90;;;;;;5022858;28;20075;-58
2022/05/15 04:03:17;;;;;;;17.15;7.03;;;10.60;99.90;;;;;;5025378;28;20034;-58
2022/05/15 04:05:42;;;;;;;16.45;6.78;;;10.60;99.90;;;;;;5025749;28;20022;-57
2022/05/15 04:08:08;;;;;;;19.95;7.80;;;10.70;99.90;;;;;;5026407;28;20025;-57
2022/05/15 04:10:33;;;;;;;12.27;6.57;;;10.70;99.90;;;;;;5027382;28;20394;-58
2022/05/15 04:12:59;;;;;;;15.13;6.95;;;10.80;99.90;;;;;;5029916;28;20040;-58
2022/05/15 04:15:24;;;;;;;17.88;7.18;;;10.80;99.90;;;;;;5036712;28;20045;-56
2022/05/15 04:17:50;;;;;;;15.30;8.38;;;10.80;99.90;;;;;;5006717;28;20060;-59
2022/05/15 04:20:23;;;;;;;13.05;6.05;;;10.90;99.90;;;;;;5033006;28;20024;-58
2022/05/15 04:22:49;;;;;;;16.25;5.80;;;11.00;99.90;;;;;;5026973;28;20506;-59
2022/05/15 04:25:15;;;;;;;12.00;5.78;;;11.10;99.90;;;;;;5024132;28;20078;-60
2022/05/15 04:27:41;;;;;;;10.68;5.30;;;11.20;99.90;;;;;;5035212;28;20523;-59
2022/05/15 04:30:09;;;;;;;15.13;5.47;;;11.40;99.90;;;;;;5029857;28;20100;-59
2022/05/15 04:32:35;;;;;;;14.90;5.10;;;11.50;99.90;;;;;;5030213;28;20025;-60
2022/05/15 04:35:00;;;;;;;15.98;6.10;;;11.60;99.90;;;;;;5024887;28;20032;-57
2022/05/15 04:37:26;;;;;;;16.40;5.57;;;11.70;99.90;;;;;;5025026;28;20041;-57
2022/05/15 04:39:52;;;;;;;13.23;5.40;;;11.80;99.90;;;;;;5024656;28;20507;-59
2022/05/15 04:42:17;;;;;;;14.00;5.72;;;12.00;99.90;;;;;;5032905;28;20013;-60
2022/05/15 04:44:43;;;;;;;18.20;5.80;;;12.20;99.90;;;;;;5028182;28;20040;-56
2022/05/15 04:47:08;;;;;;;9.80;5.50;;;12.40;99.90;;;;;;5023314;28;20435;-58
2022/05/15 04:49:34;;;;;;;11.95;5.35;;;13.00;99.90;;;;;;5023615;28;20048;-60
2022/05/15 04:52:00;;;;;;;15.52;5.05;;;13.90;99.90;;;;;;5026699;28;20029;-61
2022/05/15 04:54:25;;;;;;;11.65;4.35;;;14.50;99.90;;;;;;5022168;28;20116;-59
2022/05/15 04:56:51;;;;;;;12.40;4.57;;;15.50;99.90;;;;;;5025180;28;20033;-62
2022/05/15 04:59:16;;;;;;;9.50;4.40;;;16.90;97.30;;;;;;5026248;28;20030;-61
2022/05/15 05:01:42;;;;;;;11.05;4.30;;;17.50;95.30;;;;;;5025515;28;20060;-59
2022/05/15 05:04:08;;;;;;;9.85;4.55;;;17.90;94.60;;;;;;5027066;28;20025;-59
2022/05/15 05:06:34;;;;;;;7.80;3.80;;;18.60;93.10;;;;;;5030080;28;20587;-60
2022/05/15 05:08:59;;;;;;;7.78;3.70;;;19.50;91.70;;;;;;5024665;28;20026;-58
2022/05/15 05:11:25;;;;;;;12.15;3.97;;;20.10;90.20;;;;;;5025876;28;20471;-61
2022/05/15 05:13:50;;;;;;;16.80;4.38;;;21.00;86.80;;;;;;5025934;28;20130;-61
2022/05/15 05:16:16;;;;;;;11.95;3.45;;;21.60;84.40;;;;;;5028678;28;20403;-61
2022/05/15 05:18:42;;;;;;;11.20;3.60;;;22.10;82.40;;;;;;5006440;28;20092;-60
2022/05/15 05:21:07;;;;;;;9.40;3.65;;;22.50;81.00;;;;;;5024610;28;20542;-60
2022/05/15 05:23:33;;;;;;;8.85;3.53;;;22.60;79.00;;;;;;5016107;28;20029;-62
2022/05/15 05:25:59;;;;;;;11.85;3.55;;;22.80;78.40;;;;;;5022137;28;20575;-58
2022/05/15 05:28:26;;;;;;;5.35;2.95;;;22.80;77.90;;;;;;5022635;28;20478;-59
2022/05/15 05:30:53;;;;;;;9.07;3.47;;;22.90;77.20;;;;;;5022574;28;20029;-61
2022/05/15 05:33:20;;;;;;;9.23;3.60;;;22.90;76.80;;;;;;5023159;28;20080;-51
2022/05/15 05:35:46;;;;;;;11.70;3.40;;;22.80;76.60;;;;;;5032659;28;20300;-59
2022/05/15 05:38:12;;;;;;;11.40;3.67;;;22.80;76.20;;;;;;5027134;28;20056;-59
2022/05/15 05:40:37;;;;;;;12.82;4.20;;;22.90;76.10;;;;;;5022378;28;20061;-60
2022/05/15 05:43:03;;;;;;;9.95;3.45;;;22.80;76.50;;;;;;5024453;28;20032;-61
2022/05/15 05:45:29;;;;;;;12.63;3.90;;;23.10;75.50;;;;;;5025336;28;20041;-61
2022/05/15 05:47:55;;;;;;;14.13;4.00;;;23.10;75.60;;;;;;5030533;28;20026;-58
2022/05/15 05:50:23;;;;;;;16.00;3.70;;;23.00;75.60;;;;;;5025569;28;20029;-54
2022/05/15 05:52:49;;;;;;;7.38;3.33;;;23.20;75.20;;;;;;5029411;28;20033;-61
2022/05/15 05:55:17;;;;;;;12.32;3.50;;;23.60;74.70;;;;;;5028262;28;20570;-61
2022/05/15 05:57:43;;;;;;;8.45;3.28;;;24.10;74.10;;;;;;5029528;28;20036;-61
2022/05/15 06:00:13;;;;;;;10.82;4.00;;;24.40;73.00;;;;;;5028603;28;20033;-61
2022/05/15 06:02:39;;;;;;;11.40;3.00;;;24.80;71.90;;;;;;5027658;28;20045;-54
2022/05/15 06:05:05;;;;;;;9.27;3.63;;;25.20;71.40;;;;;;5027082;28;20060;-61
2022/05/15 06:07:33;;;;;;;8.48;3.33;;;25.50;70.60;;;;;;5028919;28;20057;-61
2022/05/15 06:09:59;;;;;;;9.48;3.45;;;25.50;69.90;;;;;;5022172;28;20017;-60
2022/05/15 06:12:25;;;;;;;8.98;3.35;;;25.70;72.20;;;;;;5026921;28;20025;-61
2022/05/15 06:14:52;;;;;;;8.85;3.50;;;26.10;70.50;;;;;;5027560;28;20483;-62
2022/05/15 06:17:22;;;;;;;8.80;3.08;;;26.90;66.90;;;;;;5013749;28;20167;-61
2022/05/15 06:19:49;;;;;;;10.85;3.17;;;26.80;67.20;;;;;;5028135;28;20049;-61
2022/05/15 06:22:14;;;;;;;9.32;2.80;;;27.30;67.00;;;;;;5029443;28;20068;-61
2022/05/15 06:24:40;;;;;;;9.77;3.35;;;27.60;65.70;;;;;;5022550;28;20519;-59
2022/05/15 06:27:06;;;;;;;8.30;3.22;;;26.40;67.80;;;;;;5032693;28;20066;-61
2022/05/15 06:29:31;;;;;;;10.60;3.40;;;26.30;68.60;;;;;;5023083;28;20025;-61
2022/05/15 06:31:58;;;;;;;9.07;3.00;;;26.60;69.40;;;;;;5029218;28;20036;-62
2022/05/15 06:34:24;;;;;;;11.85;4.35;;;26.80;66.70;;;;;;5025498;28;20021;-61
2022/05/15 06:36:50;;;;;;;9.55;3.08;;;27.10;65.80;;;;;;5026804;28;20040;-60
2022/05/15 06:39:15;;;;;;;8.57;2.60;;;27.20;66.30;;;;;;5026944;28;20033;-61
2022/05/15 06:41:41;;;;;;;10.93;3.40;;;26.80;66.60;;;;;;5023556;28;20541;-62
2022/05/15 06:44:07;;;;;;;11.27;3.45;;;26.50;67.90;;;;;;5020257;28;20056;-61
2022/05/15 06:46:33;;;;;;;11.43;3.00;;;27.40;67.70;;;;;;5019707;28;20115;-60
2022/05/15 06:48:58;;;;;;;11.88;3.08;;;27.40;66.50;;;;;;5022047;28;20502;-58
2022/05/15 06:51:24;;;;;;;10.70;3.55;;;28.60;63.70;;;;;;5029200;28;20100;-59
2022/05/15 06:53:50;;;;;;;8.27;3.22;;;28.60;64.90;;;;;;5019222;28;20032;-59
2022/05/15 06:59:02;;;;;;;10.10;3.67;;;29.40;61.70;;;;;;5018414;28;20437;-59
2022/05/15 07:01:28;;;;;;;11.68;3.58;;;29.10;61.60;;;;;;5018178;28;20056;-60
2022/05/15 07:03:53;;;;;;;13.43;3.22;;;27.60;62.30;;;;;;5021412;28;20026;-60
2022/05/15 07:06:19;;;;;;;6.72;2.67;;;27.00;63.30;;;;;;5020289;28;20075;-59
2022/05/15 07:08:44;;;;;;;10.90;3.22;;;26.80;65.10;;;;;;5013270;28;20033;-58
2022/05/15 07:11:11;;;;;;;8.68;3.40;;;27.30;65.20;;;;;;5015820;28;20036;-58
2022/05/15 07:13:36;;;;;;;7.57;3.28;;;27.60;63.90;;;;;;5019371;28;20068;-60
2022/05/15 07:16:02;;;;;;;8.55;3.20;;;27.80;65.70;;;;;;5024557;28;20064;-60
2022/05/15 07:18:29;;;;;;;6.95;2.95;;;28.30;62.00;;;;;;5010453;28;20179;-59
2022/05/15 07:20:55;;;;;;;11.73;2.85;;;29.00;62.60;;;;;;5033854;28;20044;-60
2022/05/15 07:23:21;;;;;;;11.38;3.40;;;29.50;61.60;;;;;;5031393;28;20445;-55
2022/05/15 07:25:49;;;;;;;10.13;3.17;;;29.90;60.40;;;;;;5027211;28;20466;-56
2022/05/15 07:28:15;;;;;;;10.98;3.13;;;29.50;59.70;;;;;;5027684;28;20045;-60
2022/05/15 07:30:41;;;;;;;7.82;2.60;;;29.70;60.20;;;;;;5024827;28;20026;-56
2022/05/15 07:33:07;;;;;;;8.05;2.70;;;30.00;58.70;;;;;;5020730;28;20122;-61
2022/05/15 07:35:32;;;;;;;6.55;2.70;;;30.10;59.30;;;;;;5024959;28;20041;-61
2022/05/15 07:37:58;;;;;;;7.53;2.80;;;30.70;58.30;;;;;;5024209;28;20033;-61
2022/05/15 07:40:24;;;;;;;8.80;2.97;;;31.20;57.70;;;;;;5028027;28;20033;-62
2022/05/15 07:42:49;;;;;;;9.82;3.00;;;31.60;57.10;;;;;;5021394;28;20026;-62
2022/05/15 07:45:16;;;;;;;10.38;2.55;;;31.00;57.00;;;;;;5026325;28;20079;-61
2022/05/15 07:47:42;;;;;;;9.98;2.78;;;30.30;56.70;;;;;;5030653;28;20096;-60
2022/05/15 07:50:09;;;;;;;8.65;2.83;;;29.90;57.80;;;;;;5031016;28;20030;-61
2022/05/15 07:52:35;;;;;;;8.13;3.08;;;30.30;58.00;;;;;;5024544;28;20124;-60
2022/05/15 07:55:01;;;;;;;6.82;2.35;;;30.80;56.70;;;;;;5027317;28;20766;-60
2022/05/15 07:57:27;;;;;;;14.57;2.88;;;30.60;57.20;;;;;;5028401;28;20065;-59
2022/05/15 07:59:53;;;;;;;8.88;2.88;;;30.90;57.50;;;;;;5022496;28;20462;-61
2022/05/15 08:02:19;;;;;;;7.72;2.40;;;30.50;56.50;;;;;;5021237;28;20029;-61
2022/05/15 08:10:13;;;;;;;8.98;2.60;;;31.40;55.60;;;;;;5021640;28;20513;-60
2022/05/15 08:12:39;;;;;;;7.72;2.75;;;30.90;55.40;;;;;;5019658;28;20034;-60
2022/05/15 08:15:07;;;;;;;7.45;3.08;;;31.00;55.20;;;;;;5027865;28;20079;-59
2022/05/15 08:17:33;;;;;;;7.90;2.47;;;30.50;55.10;;;;;;5014964;28;20141;-61
2022/05/15 08:25:45;;;;;;;10.77;3.05;;;31.20;54.00;;;;;;4958881;28;20123;-61
2022/05/15 08:28:11;;;;;;;11.57;3.10;;;31.20;55.70;;;;;;5015040;28;20478;-62
2022/05/15 08:30:37;;;;;;;5.80;2.20;;;32.00;55.10;;;;;;5031931;28;20248;-62
2022/05/15 08:33:04;;;;;;;11.18;2.80;;;32.30;55.40;;;;;;5023216;28;20022;-61
2022/05/15 08:35:30;;;;;;;9.85;3.17;;;32.80;53.00;;;;;;5025831;28;20116;-61
2022/05/15 08:37:57;;;;;;;10.27;3.35;;;33.10;52.90;;;;;;5026939;28;20094;-60
2022/05/15 08:40:28;;;;;;;10.32;3.15;;;32.70;54.30;;;;;;5025926;28;20017;-62
2022/05/15 08:42:56;;;;;;;6.55;2.80;;;32.60;52.00;;;;;;5026018;28;20017;-58
2022/05/15 08:45:32;;;;;;;7.15;2.40;;;31.80;52.70;;;;;;5024825;28;20021;-61
2022/05/15 08:48:12;;;;;;;9.52;3.03;;;32.40;52.70;;;;;;5031005;28;20026;-60
2022/05/15 08:50:45;;;;;;;7.68;2.40;;;32.50;51.80;;;;;;5027777;28;20080;-61
2022/05/15 08:53:27;;;;;;;9.85;3.25;;;32.10;52.80;;;;;;5026096;28;20156;-62
2022/05/15 08:55:55;;;;;;;;;;;32.40;53.20;;;;;;5027635;28;20383;-59
2022/05/15 08:58:27;;;;;;;10.27;2.60;;;32.10;53.50;;;;;;5025754;28;19972;-62
2022/05/15 09:00:54;;;;;;;5.82;2.00;;;31.60;52.00;;;;;;5018666;28;20022;-61
2022/05/15 09:03:31;;;;;;;6.82;2.30;;;31.20;53.60;;;;;;5028270;28;20021;-60
2022/05/15 09:06:34;;;;;;;8.18;2.63;;;31.50;52.30;;;;;;5027679;28;20030;-61
2022/05/15 09:09:27;;;;;;;8.50;2.55;;;31.20;51.80;;;;;;5012926;28;20053;-61
2022/05/15 09:12:00;;;;;;;9.05;2.47;;;30.90;53.30;;;;;;5031107;28;20422;-61
2022/05/15 09:14:40;;;;;;;5.70;2.15;;;30.80;53.20;;;;;;5027208;28;20044;-60
2022/05/15 09:17:38;;;;;;;8.15;2.50;;;30.10;53.40;;;;;;5020733;28;20033;-60
2022/05/15 09:20:18;;;;;;;7.57;2.13;;;30.60;53.60;;;;;;5025162;28;20142;-60
2022/05/15 09:22:56;;;;;;;7.70;2.67;;;30.70;53.30;;;;;;5019066;28;20029;-59
2022/05/15 09:25:24;;;;;;;11.45;2.67;;;31.50;52.40;;;;;;5029425;28;20028;-60
2022/05/15 09:28:11;;;;;;;8.30;2.35;;;31.60;52.60;;;;;;5029490;28;20037;-57
2022/05/15 09:30:42;;;;;;;6.22;2.33;;;31.50;52.50;;;;;;5024835;28;20037;-60
2022/05/15 09:33:22;;;;;;;7.45;2.20;;;31.60;51.70;;;;;;5025309;28;20034;-61
2022/05/15 09:35:47;;;;;;;12.57;3.03;;;31.60;52.00;;;;;;5029049;28;20037;-61
2022/05/15 09:38:29;;;;;;;10.93;3.00;;;31.80;52.60;;;;;;5028778;28;20060;-61
2022/05/15 09:43:54;;;;;;;8.20;2.30;;;31.70;51.50;;;;;;5023980;28;20083;-60
2022/05/15 09:46:23;;;;;;;7.43;2.28;;;32.10;51.90;;;;;;5028324;28;20560;-61
2022/05/15 09:49:19;;;;;;;10.70;2.85;;;32.30;51.10;;;;;;5021978;28;20032;-62
2022/05/15 09:51:49;;;;;;;14.85;3.08;;;31.80;52.50;;;;;;5023451;28;20061;-60
2022/05/15 09:54:48;;;;;;;10.60;2.55;;;32.60;52.40;;;;;;5024679;28;20109;-56
2022/05/15 09:57:22;;;;;;;8.95;2.80;;;33.00;51.30;;;;;;4977438;28;20103;-61
2022/05/15 10:00:10;;;;;;;6.18;2.50;;;32.80;49.80;;;;;;5023384;28;20049;-61
2022/05/15 10:02:43;;;;;;;8.80;2.13;;;32.00;51.10;;;;;;5021820;28;20029;-59
2022/05/15 10:05:15;;;;;;;11.35;2.53;;;31.50;51.30;;;;;;5028240;28;20036;-58
2022/05/15 10:07:46;;;;;;;8.07;2.33;;;30.90;53.00;;;;;;5021621;28;20032;-61
2022/05/15 10:10:25;;;;;;;13.35;2.45;;;30.40;52.40;;;;;;5033127;28;20028;-59
2022/05/15 10:12:55;;;;;;;5.03;2.13;;;29.90;52.40;;;;;;5030858;28;20044;-60
2022/05/15 10:15:21;;;;;;;9.00;2.17;;;29.60;53.40;;;;;;5032389;28;20092;-59
2022/05/15 10:17:54;;;;;;;8.23;1.98;;;29.50;52.10;;;;;;5039951;28;20026;-60
2022/05/15 10:20:24;;;;;;;5.32;1.73;;;29.00;52.70;;;;;;5016274;28;20041;-57
2022/05/15 10:22:53;;;;;;;7.28;2.22;;;28.80;52.20;;;;;;5019883;28;20842;-59
2022/05/15 10:25:59;;;;;;;8.20;2.08;;;28.50;53.40;;;;;;5019658;28;20026;-59
2022/05/15 10:28:27;;;;;;;13.35;2.72;;;28.50;54.80;;;;;;4940550;28;21166;-61
2022/05/15 10:31:03;;;;;;;10.23;2.83;;;28.40;52.70;;;;;;4932555;28;20108;-60
2022/05/15 10:33:37;;;;;;;5.55;1.90;;;28.60;53.40;;;;;;4990353;28;20046;-60
2022/05/15 10:36:31;;;;;;;9.45;2.05;;;28.60;53.40;;;;;;5022613;28;20042;-59
2022/05/15 10:39:09;;;;;;;7.57;1.92;;;28.80;54.30;;;;;;5021935;28;20042;-60
2022/05/15 10:41:38;;;;;;;8.63;2.17;;;28.60;52.00;;;;;;5017291;28;20056;-60
2022/05/15 10:44:10;;;;;;;5.88;1.98;;;28.50;50.80;;;;;;5024399;28;20018;-59
2022/05/15 10:46:50;;;;;;;7.30;2.28;;;28.20;51.50;;;;;;5025732;28;20108;-58
2022/05/15 10:49:34;;;;;;;3.38;2.40;;;28.00;53.10;;;;;;5025645;28;20112;-59
2022/05/15 10:52:12;;;;;;;5.93;1.55;;;28.20;53.10;;;;;;5021899;28;20036;-61
2022/05/15 10:57:47;;;;;;;7.97;2.83;;;27.70;52.40;;;;;;5023664;28;20032;-56
2022/05/15 11:00:35;;;;;;;5.50;1.80;;;27.80;52.60;;;;;;5019847;28;20549;-58
2022/05/15 11:03:12;;;;;;;6.90;1.80;;;27.70;52.90;;;;;;5021512;28;20037;-60
2022/05/15 11:06:03;;;;;;;8.10;2.17;;;27.50;52.30;;;;;;5021699;28;20402;-58
2022/05/15 11:08:53;;;;;;;8.23;2.08;;;27.30;52.80;;;;;;5014867;28;20073;-59
2022/05/15 11:11:18;;;;;;;7.45;1.83;;;27.30;53.70;;;;;;5020196;28;20033;-59
2022/05/15 11:14:01;;;;;;;4.05;1.50;;;27.20;52.80;;;;;;5022941;28;20029;-57
2022/05/15 11:16:42;;;;;;;7.32;2.58;;;27.10;52.80;;;;;;5014262;28;20040;-57
2022/05/15 11:19:25;;;;;;;8.35;1.63;;;26.80;52.40;;;;;;5006725;28;20048;-61
2022/05/15 11:22:03;;;;;;;8.23;2.23;;;26.50;52.50;;;;;;5025441;28;20025;-55
2022/05/15 11:24:55;;;;;;;7.60;2.17;;;26.70;54.10;;;;;;5018230;28;20022;-58
2022/05/15 11:27:27;;;;;;;11.85;1.70;;;26.70;55.80;;;;;;5027209;28;20063;-58
2022/05/15 11:29:56;;;;;;;8.18;2.22;;;26.70;54.00;;;;;;5022605;28;20044;-59
2022/05/15 11:32:39;;;;;;;4.65;1.70;;;26.80;54.40;;;;;;5031077;28;20025;-58
2022/05/15 11:35:22;;;;;;;10.77;1.75;;;26.80;54.10;;;;;;5025823;28;20042;-58
2022/05/15 11:37:56;;;;;;;5.33;2.17;;;26.50;53.00;;;;;;5026951;28;20056;-61
2022/05/15 11:40:31;;;;;;;5.60;2.03;;;26.30;53.50;;;;;;5029530;28;20276;-60
2022/05/15 11:42:57;;;;;;;7.72;2.85;;;26.40;54.40;;;;;;5031407;28;20026;-58
2022/05/15 11:45:30;;;;;;;5.10;1.50;;;26.30;55.80;;;;;;5042743;28;20487;-60
2022/05/15 11:48:23;;;;;;;3.90;1.63;;;26.40;54.40;;;;;;5028223;28;20026;-56
2022/05/15 11:50:59;;;;;;;3.88;1.50;;;26.60;54.30;;;;;;5029913;28;20052;-58
2022/05/15 11:53:28;;;;;;;6.38;2.13;;;26.30;54.10;;;;;;5031514;28;20025;-53
2022/05/15 11:55:55;;;;;;;4.15;1.65;;;26.60;58.00;;;;;;5014781;28;20507;-57
2022/05/15 11:58:27;;;;;;;5.38;1.85;;;26.60;57.90;;;;;;5029611;28;20029;-58
2022/05/15 12:01:07;;;;;;;9.32;2.03;;;26.70;58.00;;;;;;5032828;28;20049;-58
2022/05/15 12:03:39;;;;;;;9.27;1.65;;;26.90;57.00;;;;;;5029116;28;20025;-57
2022/05/15 12:06:06;;;;;;;6.78;1.90;;;26.80;55.20;;;;;;5032247;28;20041;-57
2022/05/15 12:08:35;;;;;;;4.80;1.95;;;26.90;56.70;;;;;;5028828;28;20037;-58
2022/05/15 12:11:18;;;;;;;5.78;2.30;;;27.10;54.90;;;;;;5031002;28;20021;-54
2022/05/15 12:13:46;;;;;;;;;;;26.90;55.60;;;;;;5026355;28;20072;-59
2022/05/15 12:16:49;;;;;;;6.03;1.92;;;26.80;56.50;;;;;;5029325;28;19912;-59
2022/05/15 12:19:20;;;;;;;6.47;2.10;;;26.80;56.10;;;;;;5005230;28;20529;-60
2022/05/15 12:21:50;;;;;;;6.40;1.65;;;26.90;55.50;;;;;;5028297;28;20025;-59
2022/05/15 12:24:27;;;;;;;7.28;2.03;;;26.80;56.90;;;;;;5028638;28;20013;-59
2022/05/15 12:27:19;;;;;;;4.90;1.63;;;26.60;54.90;;;;;;5031141;28;20043;-60
2022/05/15 12:30:04;;;;;;;6.38;1.83;;;26.50;55.90;;;;;;5028914;28;20060;-58
2022/05/15 12:32:52;;;;;;;6.18;2.08;;;26.50;56.90;;;;;;5026536;28;20072;-60
2022/05/15 12:35:25;;;;;;;6.90;1.83;;;26.50;56.60;;;;;;5026802;28;20072;-60
2022/05/15 12:38:13;;;;;;;7.45;2.13;;;26.30;55.20;;;;;;5028804;28;20022;-58
2022/05/15 12:41:02;;;;;;;8.63;2.85;;;26.10;57.20;;;;;;5025074;28;20388;-60
2022/05/15 12:43:31;;;;;;;5.03;1.52;;;26.20;57.20;;;;;;5026396;28;20033;-60
2022/05/15 12:45:58;;;;;;;5.30;1.80;;;26.30;55.90;;;;;;5027554;28;20487;-61
2022/05/15 12:48:24;;;;;;;6.82;2.45;;;26.30;55.80;;;;;;5028031;28;20025;-60
2022/05/15 12:50:56;;;;;;;11.65;1.75;;;26.30;56.50;;;;;;5030097;28;20029;-61
2022/05/15 12:53:29;;;;;;;8.15;2.22;;;26.60;55.70;;;;;;5027956;28;20022;-60
2022/05/15 12:56:22;;;;;;;7.53;1.92;;;26.60;56.50;;;;;;5026944;28;20029;-62
2022/05/15 12:58:57;;;;;;;5.18;1.50;;;26.60;55.00;;;;;;5019002;28;20269;-61
2022/05/15 13:01:29;;;;;;;8.32;1.90;;;26.80;55.30;;;;;;5030015;28;20163;-59
2022/05/15 13:03:57;;;;;;;8.18;1.85;;;26.80;56.30;;;;;;5027050;28;20104;-57
2022/05/15 13:06:54;;;;;;;8.45;1.70;;;26.60;55.80;;;;;;5026379;28;20062;-62
2022/05/15 13:09:23;;;;;;;5.78;2.00;;;26.50;53.90;;;;;;5008000;28;20095;-60
2022/05/15 13:11:56;;;;;;;5.75;2.13;;;26.40;54.90;;;;;;5025671;28;20078;-61
2022/05/15 13:14:31;;;;;;;6.28;2.75;;;26.30;55.00;;;;;;5027161;28;20063;-60
2022/05/15 13:16:57;;;;;;;5.38;1.95;;;26.20;56.20;;;;;;5027120;28;20054;-60
2022/05/15 13:19:29;;;;;;;6.25;1.98;;;26.10;56.30;;;;;;5001628;28;20049;-59